Capitol Logistics 1801

Operating for CJT



CYHM
John C. Munro Hamilton International Airport
Hamilton, CA
CYOW
Ottawa Macdonald-Cartier International Airport
Ottawa, CA

Activity Log

Date Flight Route Aircraft Duration
11/22/2021 CPX1801 SN UKPAG MIVOK CAPTL5 B738 0h 50m
09/09/2021 CPX1801 SN UKPAG MIVOK CAPTL5 B763 0h 53m

Route Details

Aircraft Information
Group: North America Fleet
Types: B738,B752,B762,B763
Route Data
Demand: V
Distance: 224nm
Duration: 0h 39m
Recm'd Route: SN UKPAG MIVOK CAPTL5
Origin Wx: CYHM 270500Z 21008KT 15SM -RA FEW015 BKN022 OVC034 19/18 A2980 RMK CF1SC5SC2 SLP092 DENSITY ALT 1600FT
Dest. Wx: CYOW 270500Z 21014G22KT 15SM SCT050 BKN090 21/15 A2982 RMK SC4AC3 SLP098 DENSITY ALT 1300FT
Notes:

Financial History
Total Freight: 88,466lbs
Average Load: 44,233lbs/flt
Fuel Used: 11,812lbs
Avg. Fuel Used: 5,906lbs/flt
Fuel Expense: $3,542
Avg. Fuel Expense: $1,771
Avg. Fuel Cost: $0.31/lbs
Total Gross Income: $219,396
Pilot Pay: $408
Total Expenses: $28,881
Total Revenue: $186,762
Average Revenue: $109,697.84